createdAt,value
2019-05-05T00:00:57.987Z,59.14
2019-05-05T00:03:36.038Z,59.18
2019-05-05T00:06:07.352Z,59.21
2019-05-05T00:08:37.086Z,59.29
2019-05-05T00:11:26.573Z,59.33
2019-05-05T00:13:57.780Z,59.39
2019-05-05T00:16:35.147Z,59.46
2019-05-05T00:19:04.917Z,59.52
2019-05-05T00:21:34.484Z,59.59
2019-05-05T00:24:04.626Z,59.67
2019-05-05T00:26:34.960Z,59.71
2019-05-05T00:29:05.704Z,59.74
2019-05-05T00:31:36.432Z,59.80
2019-05-05T00:34:06.032Z,59.82
2019-05-05T00:36:35.822Z,59.88
2019-05-05T00:39:08.385Z,59.94
2019-05-05T00:41:37.941Z,60.00
2019-05-05T00:44:07.500Z,60.04
2019-05-05T00:46:38.604Z,60.11
2019-05-05T00:49:08.161Z,60.17
2019-05-05T00:51:37.733Z,60.24
2019-05-05T00:54:07.268Z,60.33
2019-05-05T00:56:36.953Z,60.41
2019-05-05T00:59:08.187Z,60.50
2019-05-05T01:01:55.287Z,60.62
2019-05-05T01:04:26.595Z,60.74
2019-05-05T01:06:56.286Z,60.84
2019-05-05T01:09:27.758Z,60.94
2019-05-05T01:11:57.643Z,61.04
2019-05-05T01:14:27.198Z,61.13
2019-05-05T01:16:56.829Z,61.22
2019-05-05T01:19:26.317Z,61.34
2019-05-05T01:21:56.034Z,61.46
2019-05-05T01:24:25.911Z,61.57
2019-05-05T01:26:55.566Z,61.70
2019-05-05T01:29:25.386Z,61.81
2019-05-05T01:31:58.139Z,61.92
2019-05-05T01:34:30.463Z,62.05
2019-05-05T01:37:01.677Z,62.17
2019-05-05T01:39:34.546Z,62.27
2019-05-05T01:42:06.081Z,62.38
2019-05-05T01:44:35.752Z,62.46
2019-05-05T01:47:05.467Z,62.56
2019-05-05T01:49:35.050Z,62.61
2019-05-05T01:52:04.657Z,62.71
2019-05-05T01:54:35.313Z,62.80
2019-05-05T01:57:05.956Z,62.92
2019-05-05T01:59:36.122Z,63.03
2019-05-05T02:02:06.600Z,63.14
2019-05-05T02:04:37.545Z,63.25
2019-05-05T02:07:07.412Z,63.36
2019-05-05T02:09:37.053Z,63.48
2019-05-05T02:12:06.745Z,63.57
2019-05-05T02:14:36.448Z,63.64
2019-05-05T02:17:06.014Z,63.71
2019-05-05T02:19:35.584Z,63.77
2019-05-05T02:22:05.509Z,63.82
2019-05-05T02:24:35.482Z,63.94
2019-05-05T02:27:05.404Z,64.05
2019-05-05T02:29:36.677Z,64.11
2019-05-05T02:32:25.753Z,64.22
2019-05-05T02:35:00.324Z,64.33
2019-05-05T02:37:29.890Z,64.44
2019-05-05T02:40:06.345Z,64.53
2019-05-05T02:42:31.887Z,64.60
2019-05-05T02:45:05.704Z,64.71
2019-05-05T02:47:56.584Z,64.78
2019-05-05T02:50:46.712Z,64.89
2019-05-05T02:53:04.054Z,65.00
2019-05-05T02:55:34.990Z,65.09
2019-05-05T02:58:04.680Z,65.20
2019-05-05T03:00:36.005Z,65.33
2019-05-05T03:03:07.272Z,65.43
2019-05-05T03:05:36.941Z,65.54
2019-05-05T03:08:08.268Z,65.65
2019-05-05T03:10:39.034Z,65.73
2019-05-05T03:13:08.793Z,65.83
2019-05-05T03:15:47.083Z,65.95
2019-05-05T03:18:16.672Z,66.05
2019-05-05T03:20:46.288Z,66.16
2019-05-05T03:23:15.897Z,66.27
2019-05-05T03:25:46.161Z,66.39
2019-05-05T03:28:15.714Z,66.48
2019-05-05T03:30:45.793Z,66.56
2019-05-05T03:33:16.446Z,66.66
2019-05-05T03:35:46.330Z,66.73
2019-05-05T03:38:16.895Z,66.79
2019-05-05T03:40:48.127Z,66.87
2019-05-05T03:43:31.503Z,66.98
2019-05-05T03:46:04.409Z,67.06
2019-05-05T03:48:34.704Z,67.18
2019-05-05T03:51:16.047Z,67.29
2019-05-05T03:53:36.345Z,67.39
2019-05-05T03:56:06.040Z,67.47
2019-05-05T03:58:35.598Z,67.57
2019-05-05T04:01:27.878Z,67.65
2019-05-05T04:04:16.464Z,67.75
2019-05-05T04:06:47.101Z,67.84
2019-05-05T04:09:16.663Z,67.93
2019-05-05T04:11:46.423Z,68.01
2019-05-05T04:14:18.390Z,68.08
2019-05-05T04:17:01.134Z,68.15
2019-05-05T04:19:37.946Z,68.20
2019-05-05T04:22:07.510Z,68.28
2019-05-05T04:24:37.079Z,68.37
2019-05-05T04:27:06.672Z,68.42
2019-05-05T04:29:36.287Z,68.49
2019-05-05T04:32:05.775Z,68.56
2019-05-05T04:34:35.228Z,68.62
2019-05-05T04:37:04.840Z,68.67
2019-05-05T04:39:36.284Z,68.74
2019-05-05T04:42:05.840Z,68.82
2019-05-05T04:44:35.501Z,68.86
2019-05-05T04:47:15.752Z,68.92
2019-05-05T04:49:47.428Z,68.95
2019-05-05T04:52:24.626Z,68.99
2019-05-05T04:54:55.796Z,69.05
2019-05-05T04:57:25.764Z,69.13
2019-05-05T04:59:55.294Z,69.21
2019-05-05T05:02:38.363Z,69.28
2019-05-05T05:05:25.009Z,69.36
2019-05-05T05:07:57.694Z,69.47
2019-05-05T05:10:25.921Z,69.54
2019-05-05T05:12:55.412Z,69.60
2019-05-05T05:15:36.632Z,69.64
2019-05-05T05:18:17.611Z,69.69
2019-05-05T05:20:55.224Z,69.70
2019-05-05T05:23:36.443Z,69.74
2019-05-05T05:26:06.092Z,69.74
2019-05-05T05:28:38.531Z,69.75
2019-05-05T05:31:24.343Z,69.74
2019-05-05T05:33:52.114Z,69.71
2019-05-05T05:36:24.764Z,69.67
2019-05-05T05:38:56.160Z,69.66
2019-05-05T05:41:45.173Z,69.70
2019-05-05T05:44:28.088Z,69.73
2019-05-05T05:47:14.112Z,69.77
2019-05-05T05:49:48.424Z,69.83
2019-05-05T05:52:19.275Z,69.89
2019-05-05T05:54:49.105Z,69.96
2019-05-05T05:57:18.662Z,69.99
2019-05-05T05:59:48.334Z,70.04
2019-05-05T06:02:18.004Z,70.10
2019-05-05T06:04:47.574Z,70.12
2019-05-05T06:07:17.134Z,70.19
2019-05-05T06:09:48.257Z,70.25
2019-05-05T06:12:17.769Z,70.29
2019-05-05T06:14:54.413Z,70.37
2019-05-05T06:17:23.981Z,70.37
2019-05-05T06:20:21.463Z,70.35
2019-05-05T06:22:32.217Z,70.33
2019-05-05T06:25:06.157Z,70.38
2019-05-05T06:27:34.446Z,70.35
2019-05-05T06:30:05.278Z,70.29
2019-05-05T06:32:34.771Z,70.22
2019-05-05T06:35:05.061Z,70.16
2019-05-05T06:37:34.819Z,70.13
2019-05-05T06:40:08.051Z,70.04
2019-05-05T06:42:39.180Z,69.98
2019-05-05T06:45:10.502Z,69.95
2019-05-05T06:47:41.563Z,69.96
2019-05-05T06:50:11.476Z,69.95
2019-05-05T06:52:44.465Z,69.96
2019-05-05T06:55:14.091Z,69.99
2019-05-05T06:57:44.415Z,69.95
2019-05-05T07:00:14.532Z,69.96
2019-05-05T07:02:44.531Z,69.99
2019-05-05T07:05:14.414Z,69.99
2019-05-05T07:07:43.984Z,70.00
2019-05-05T07:10:16.684Z,70.00
2019-05-05T07:12:46.337Z,69.98
2019-05-05T07:15:15.995Z,69.95
2019-05-05T07:17:45.605Z,69.91
2019-05-05T07:20:15.368Z,69.90
2019-05-05T07:22:58.372Z,69.88
2019-05-05T07:25:16.220Z,69.83
2019-05-05T07:27:46.068Z,69.81
2019-05-05T07:30:15.673Z,69.75
2019-05-05T07:32:45.279Z,69.67
2019-05-05T07:35:24.600Z,69.57
2019-05-05T07:37:54.332Z,69.55
2019-05-05T07:40:24.173Z,69.51
2019-05-05T07:42:54.078Z,69.43
2019-05-05T07:45:25.886Z,69.33
2019-05-05T07:47:55.055Z,69.26
2019-05-05T07:50:29.555Z,69.19
2019-05-05T07:52:55.844Z,69.12
2019-05-05T07:55:25.338Z,69.00
2019-05-05T07:57:54.819Z,68.95
2019-05-05T08:00:24.454Z,68.85
2019-05-05T08:02:54.501Z,68.81
2019-05-05T08:05:24.683Z,68.75
2019-05-05T08:07:54.354Z,68.71
2019-05-05T08:10:24.227Z,68.69
2019-05-05T08:12:54.318Z,68.62
2019-05-05T08:15:25.559Z,68.58
2019-05-05T08:17:56.762Z,68.51
2019-05-05T08:20:34.048Z,68.40
2019-05-05T08:23:04.615Z,68.32
2019-05-05T08:25:40.379Z,68.30
2019-05-05T08:28:27.701Z,68.25
2019-05-05T08:30:58.932Z,68.13
2019-05-05T08:33:28.411Z,68.08
2019-05-05T08:35:57.903Z,67.97
2019-05-05T08:38:27.620Z,67.83
2019-05-05T08:40:57.113Z,67.72
2019-05-05T08:43:26.834Z,67.60
2019-05-05T08:45:56.567Z,67.44
2019-05-05T08:48:26.120Z,67.32
2019-05-05T08:50:55.678Z,67.16
2019-05-05T08:53:25.180Z,67.06
2019-05-05T08:55:54.759Z,66.92
2019-05-05T08:58:24.349Z,66.84
2019-05-05T09:00:54.061Z,66.77
2019-05-05T09:03:24.297Z,66.67
2019-05-05T09:05:54.298Z,66.58
2019-05-05T09:08:24.267Z,66.52
2019-05-05T09:10:55.210Z,66.43
2019-05-05T09:13:25.007Z,66.35
2019-05-05T09:15:54.578Z,66.30
2019-05-05T09:18:24.682Z,66.21
2019-05-05T09:20:54.458Z,66.11
2019-05-05T09:23:24.181Z,66.04
2019-05-05T09:25:55.316Z,65.91
2019-05-05T09:28:34.145Z,65.79
2019-05-05T09:31:04.261Z,65.69
2019-05-05T09:33:33.997Z,65.60
2019-05-05T09:36:04.672Z,65.52
2019-05-05T09:38:36.000Z,65.38
2019-05-05T09:41:05.557Z,65.26
2019-05-05T09:43:35.219Z,65.16
2019-05-05T09:46:04.854Z,65.08
2019-05-05T09:48:34.417Z,64.99
2019-05-05T09:51:04.461Z,64.90
2019-05-05T09:53:34.636Z,64.85
2019-05-05T09:56:04.284Z,64.79
2019-05-05T09:58:34.783Z,64.72
2019-05-05T10:01:06.522Z,64.67
2019-05-05T10:03:36.260Z,64.58
2019-05-05T10:06:05.861Z,64.46
2019-05-05T10:08:35.736Z,64.39
2019-05-05T10:11:05.309Z,64.30
2019-05-05T10:13:34.780Z,64.19
2019-05-05T10:16:05.773Z,64.13
2019-05-05T10:18:35.988Z,64.05
2019-05-05T10:21:05.944Z,63.94
2019-05-05T10:23:37.025Z,63.85
2019-05-05T10:26:11.182Z,63.79
2019-05-05T10:28:40.882Z,63.72
2019-05-05T10:31:10.478Z,63.63
2019-05-05T10:33:41.750Z,63.60
2019-05-05T10:36:11.464Z,63.53
2019-05-05T10:38:44.469Z,63.53
2019-05-05T10:41:14.344Z,63.54
2019-05-05T10:43:43.989Z,63.50
2019-05-05T10:46:14.348Z,63.42
2019-05-05T10:48:44.603Z,63.37
2019-05-05T10:51:14.154Z,63.28
2019-05-05T10:53:43.996Z,63.22
2019-05-05T10:56:15.125Z,63.14
2019-05-05T10:58:46.353Z,63.14
2019-05-05T11:01:27.999Z,63.09
2019-05-05T11:03:59.948Z,63.04
2019-05-05T11:06:31.000Z,62.94
2019-05-05T11:09:01.415Z,62.93
2019-05-05T11:11:34.393Z,62.90
2019-05-05T11:14:04.614Z,62.88
2019-05-05T11:16:35.085Z,62.82
2019-05-05T11:19:07.879Z,62.75
2019-05-05T11:21:37.521Z,62.72
2019-05-05T11:24:08.721Z,62.65
2019-05-05T11:26:38.338Z,62.61
2019-05-05T11:29:07.895Z,62.56
2019-05-05T11:31:37.401Z,62.53
2019-05-05T11:34:09.039Z,62.49
2019-05-05T11:36:54.270Z,62.44
2019-05-05T11:39:23.610Z,62.35
2019-05-05T11:41:54.800Z,62.24
2019-05-05T11:44:24.525Z,62.17
2019-05-05T11:46:55.164Z,62.10
2019-05-05T11:49:24.720Z,62.01
2019-05-05T11:51:54.421Z,61.93
2019-05-05T11:54:24.690Z,61.88
2019-05-05T11:56:55.431Z,61.87
2019-05-05T11:59:25.433Z,61.85
2019-05-05T12:01:55.287Z,61.76
2019-05-05T12:04:25.775Z,61.65
2019-05-05T12:06:56.136Z,61.54
2019-05-05T12:09:27.482Z,61.48
2019-05-05T12:11:57.167Z,61.41
2019-05-05T12:14:28.390Z,61.37
2019-05-05T12:16:58.951Z,61.30
2019-05-05T12:19:28.520Z,61.27
2019-05-05T12:21:58.964Z,61.23
2019-05-05T12:24:30.089Z,61.16
2019-05-05T12:27:16.542Z,61.11
2019-05-05T12:29:47.305Z,61.07
2019-05-05T12:32:16.842Z,61.04
2019-05-05T12:34:46.546Z,61.02
2019-05-05T12:37:16.254Z,60.93
2019-05-05T12:39:46.084Z,60.88
2019-05-05T12:42:15.708Z,60.83
2019-05-05T12:44:47.027Z,60.81
2019-05-05T12:47:18.391Z,60.77
2019-05-05T12:49:47.995Z,60.71
2019-05-05T12:52:17.521Z,60.68
2019-05-05T12:54:46.953Z,60.68
2019-05-05T12:57:16.734Z,60.67
2019-05-05T12:59:46.177Z,60.69
2019-05-05T13:02:15.962Z,60.60
2019-05-05T13:04:45.621Z,60.52
2019-05-05T13:07:15.140Z,60.45
2019-05-05T13:09:44.709Z,60.39
2019-05-05T13:12:14.999Z,60.33
2019-05-05T13:14:44.867Z,60.26
2019-05-05T13:17:14.730Z,60.24
2019-05-05T13:19:45.870Z,60.25
2019-05-05T13:22:26.475Z,60.21
2019-05-05T13:24:57.609Z,60.13
2019-05-05T13:27:34.092Z,60.11
2019-05-05T13:30:04.393Z,60.13
2019-05-05T13:32:34.070Z,60.09
2019-05-05T13:35:04.615Z,60.10
2019-05-05T13:37:34.178Z,60.05
2019-05-05T13:40:05.019Z,60.06
2019-05-05T13:42:34.645Z,60.04
2019-05-05T13:45:27.238Z,60.00
2019-05-05T13:47:56.787Z,59.96
2019-05-05T13:50:28.019Z,59.91
2019-05-05T13:52:57.576Z,59.86
2019-05-05T13:55:27.142Z,59.86
2019-05-05T13:57:56.817Z,59.85
2019-05-05T14:00:26.855Z,59.83
2019-05-05T14:02:56.617Z,59.84
2019-05-05T14:05:26.249Z,59.85
2019-05-05T14:07:56.081Z,59.86
2019-05-05T14:10:25.717Z,59.86
2019-05-05T14:12:55.681Z,59.89
2019-05-05T14:15:25.556Z,59.89
2019-05-05T14:17:55.276Z,59.90
2019-05-05T14:20:24.880Z,59.86
2019-05-05T14:22:54.972Z,59.86
2019-05-05T14:25:26.379Z,59.82
2019-05-05T14:27:56.042Z,59.84
2019-05-05T14:30:30.727Z,59.88
2019-05-05T14:33:00.855Z,59.88
2019-05-05T14:35:34.105Z,59.90
2019-05-05T14:38:14.581Z,59.88
2019-05-05T14:40:44.597Z,59.89
2019-05-05T14:43:16.768Z,59.88
2019-05-05T14:45:45.673Z,59.88
2019-05-05T14:48:15.303Z,59.89
2019-05-05T14:50:45.255Z,59.90
2019-05-05T14:53:14.825Z,59.93
2019-05-05T14:55:45.534Z,59.96
2019-05-05T14:58:15.041Z,59.96
2019-05-05T15:00:44.675Z,59.95
2019-05-05T15:03:14.233Z,59.97
2019-05-05T15:05:51.223Z,59.97
2019-05-05T15:08:25.152Z,59.96
2019-05-05T15:11:03.657Z,59.95
2019-05-05T15:13:33.706Z,59.94
2019-05-05T15:16:04.137Z,59.98
2019-05-05T15:18:34.592Z,59.98
2019-05-05T15:21:04.278Z,60.00
2019-05-05T15:23:34.477Z,60.05
2019-05-05T15:26:04.647Z,60.11
2019-05-05T15:28:34.244Z,60.17
2019-05-05T15:31:04.210Z,60.23
2019-05-05T15:33:34.111Z,60.31
2019-05-05T15:36:04.434Z,60.37
2019-05-05T15:38:34.819Z,60.46
2019-05-05T15:41:04.806Z,60.55
2019-05-05T15:43:34.509Z,60.62
2019-05-05T15:46:04.584Z,60.70
2019-05-05T15:48:34.648Z,60.80
2019-05-05T15:51:04.407Z,60.89
2019-05-05T15:53:35.066Z,61.00
2019-05-05T15:56:04.805Z,61.06
2019-05-05T15:58:34.467Z,61.16
2019-05-05T16:01:04.037Z,61.24
2019-05-05T16:03:33.551Z,61.32
2019-05-05T16:06:03.830Z,61.42
2019-05-05T16:08:33.970Z,61.50
2019-05-05T16:11:04.082Z,61.51
2019-05-05T16:13:35.351Z,61.53
2019-05-05T16:16:15.340Z,61.53
2019-05-05T16:19:06.313Z,61.55
2019-05-05T16:21:37.470Z,61.54
2019-05-05T16:24:17.691Z,61.56
2019-05-05T16:26:47.260Z,61.59
2019-05-05T16:29:16.829Z,61.66
2019-05-05T16:31:46.454Z,61.68
2019-05-05T16:34:15.950Z,61.73
2019-05-05T16:36:45.513Z,61.78
2019-05-05T16:39:16.421Z,61.82
2019-05-05T16:41:46.159Z,61.86
2019-05-05T16:44:15.894Z,61.93
2019-05-05T16:46:45.635Z,62.05
2019-05-05T16:49:15.207Z,62.21
2019-05-05T16:51:49.357Z,62.35
2019-05-05T16:54:24.230Z,62.53
2019-05-05T16:56:54.901Z,62.67
2019-05-05T16:59:24.407Z,62.82
2019-05-05T17:01:54.208Z,62.99
2019-05-05T17:04:24.386Z,63.17
2019-05-05T17:06:59.237Z,63.35
2019-05-05T17:09:29.249Z,63.53
2019-05-05T17:12:10.732Z,63.75
2019-05-05T17:14:54.638Z,63.94
2019-05-05T17:17:28.614Z,64.13
2019-05-05T17:19:59.860Z,64.33
2019-05-05T17:22:30.991Z,64.52
2019-05-05T17:25:01.537Z,64.70
2019-05-05T17:27:31.298Z,64.89
2019-05-05T17:30:00.832Z,65.04
2019-05-05T17:32:30.529Z,65.23
2019-05-05T17:35:00.092Z,65.38
2019-05-05T17:37:29.960Z,65.53
2019-05-05T17:40:01.094Z,65.68
2019-05-05T17:42:49.634Z,65.85
2019-05-05T17:45:26.713Z,66.00
2019-05-05T17:48:06.993Z,66.19
2019-05-05T17:50:54.601Z,66.31
2019-05-05T17:53:43.630Z,66.44
2019-05-05T17:56:14.072Z,66.58
2019-05-05T17:58:44.471Z,66.71
2019-05-05T18:01:15.476Z,66.85
2019-05-05T18:03:45.193Z,66.95
2019-05-05T18:06:20.789Z,67.04
2019-05-05T18:08:53.798Z,67.16
2019-05-05T18:11:30.993Z,67.25
2019-05-05T18:14:05.267Z,67.39
2019-05-05T18:16:34.688Z,67.45
2019-05-05T18:19:04.551Z,67.54
2019-05-05T18:21:34.816Z,67.63
2019-05-05T18:24:04.845Z,67.69
2019-05-05T18:26:34.382Z,67.77
2019-05-05T18:29:04.034Z,67.84
2019-05-05T18:31:34.013Z,67.90
2019-05-05T18:34:05.285Z,67.97
2019-05-05T18:36:35.050Z,68.04
2019-05-05T18:39:07.540Z,68.13
2019-05-05T18:41:56.433Z,68.22
2019-05-05T18:44:34.979Z,68.28
2019-05-05T18:47:15.747Z,68.38
2019-05-05T18:49:43.747Z,68.45
2019-05-05T18:52:13.989Z,68.57
2019-05-05T18:54:43.851Z,68.64
2019-05-05T18:57:13.874Z,68.70
2019-05-05T18:59:44.728Z,68.74
2019-05-05T19:02:23.923Z,68.81
2019-05-05T19:04:54.922Z,68.82
2019-05-05T19:07:26.237Z,68.83
2019-05-05T19:09:56.997Z,68.89
2019-05-05T19:12:26.782Z,68.97
2019-05-05T19:14:56.316Z,69.00
2019-05-05T19:17:28.547Z,69.07
2019-05-05T19:19:58.893Z,69.14
2019-05-05T19:22:28.541Z,69.15
2019-05-05T19:24:59.849Z,69.15
2019-05-05T19:27:29.427Z,69.16
2019-05-05T19:29:58.985Z,69.16
2019-05-05T19:32:28.453Z,69.23
2019-05-05T19:34:57.945Z,69.27
2019-05-05T19:37:28.558Z,69.33
2019-05-05T19:39:58.056Z,69.36
2019-05-05T19:42:27.616Z,69.39
2019-05-05T19:44:57.227Z,69.40
2019-05-05T19:47:26.646Z,69.44
2019-05-05T19:49:57.897Z,69.44
2019-05-05T19:52:28.838Z,69.45
2019-05-05T19:54:58.682Z,69.47
2019-05-05T19:57:28.363Z,69.51
2019-05-05T19:59:57.925Z,69.54
2019-05-05T20:02:27.538Z,69.54
2019-05-05T20:04:57.041Z,69.55
2019-05-05T20:07:26.478Z,69.56
2019-05-05T20:09:55.979Z,69.58
2019-05-05T20:12:25.585Z,69.56
2019-05-05T20:14:55.361Z,69.54
2019-05-05T20:17:26.555Z,69.53
2019-05-05T20:19:56.155Z,69.54
2019-05-05T20:22:25.710Z,69.52
2019-05-05T20:24:55.216Z,69.51
2019-05-05T20:27:24.701Z,69.50
2019-05-05T20:29:54.189Z,69.51
2019-05-05T20:32:25.353Z,69.48
2019-05-05T20:35:14.900Z,69.48
2019-05-05T20:37:54.123Z,69.46
2019-05-05T20:40:25.416Z,69.47
2019-05-05T20:42:54.915Z,69.45
2019-05-05T20:45:26.095Z,69.47
2019-05-05T20:47:55.578Z,69.48
2019-05-05T20:50:25.139Z,69.50
2019-05-05T20:52:54.730Z,69.53
2019-05-05T20:55:25.899Z,69.56
2019-05-05T20:57:56.720Z,69.58
2019-05-05T21:00:26.298Z,69.59
2019-05-05T21:02:55.883Z,69.62
2019-05-05T21:05:25.443Z,69.64
2019-05-05T21:07:54.911Z,69.67
2019-05-05T21:10:24.425Z,69.68
2019-05-05T21:12:54.505Z,69.71
2019-05-05T21:15:24.697Z,69.74
2019-05-05T21:17:54.462Z,69.73
2019-05-05T21:20:24.198Z,69.77
2019-05-05T21:23:04.585Z,69.77
2019-05-05T21:25:44.385Z,69.76
2019-05-05T21:28:14.630Z,69.74
2019-05-05T21:30:44.260Z,69.76
2019-05-05T21:33:13.778Z,69.75
2019-05-05T21:35:44.074Z,69.74
2019-05-05T21:38:14.232Z,69.75
2019-05-05T21:40:44.141Z,69.79
2019-05-05T21:43:15.367Z,69.79
2019-05-05T21:45:45.135Z,69.79
2019-05-05T21:48:14.630Z,69.81
2019-05-05T21:50:45.863Z,69.81
2019-05-05T21:53:28.443Z,69.83
2019-05-05T21:56:04.196Z,69.84
2019-05-05T21:58:36.040Z,69.84
2019-05-05T22:01:08.062Z,69.86
2019-05-05T22:03:38.990Z,69.88
2019-05-05T22:06:08.653Z,69.88
2019-05-05T22:08:38.358Z,69.91
2019-05-05T22:11:08.467Z,69.91
2019-05-05T22:13:37.956Z,69.93
2019-05-05T22:16:07.441Z,69.99
2019-05-05T22:18:37.081Z,70.06
2019-05-05T22:21:11.080Z,70.10
2019-05-05T22:23:40.536Z,70.15
2019-05-05T22:26:10.019Z,70.25
2019-05-05T22:28:39.441Z,70.31
2019-05-05T22:31:08.997Z,70.36
2019-05-05T22:33:38.449Z,70.42
2019-05-05T22:36:07.946Z,70.48
2019-05-05T22:38:37.578Z,70.50
2019-05-05T22:41:07.068Z,70.51
2019-05-05T22:43:36.625Z,70.53
2019-05-05T22:46:06.183Z,70.58
2019-05-05T22:48:36.949Z,70.60
2019-05-05T22:51:06.476Z,70.61
2019-05-05T22:53:35.961Z,70.63
2019-05-05T22:56:05.521Z,70.62
2019-05-05T22:58:35.015Z,70.67
2019-05-05T23:01:04.567Z,70.64
2019-05-05T23:03:40.355Z,70.64
2019-05-05T23:06:13.671Z,70.63
2019-05-05T23:08:45.275Z,70.62
2019-05-05T23:11:14.877Z,70.59
2019-05-05T23:13:44.475Z,70.57
2019-05-05T23:16:15.695Z,70.54
2019-05-05T23:18:45.293Z,70.51
2019-05-05T23:21:34.469Z,70.48
2019-05-05T23:24:08.508Z,70.48
2019-05-05T23:26:43.768Z,70.44
2019-05-05T23:29:13.760Z,70.43
2019-05-05T23:31:44.509Z,70.42
2019-05-05T23:34:14.685Z,70.39
2019-05-05T23:36:44.517Z,70.38
2019-05-05T23:39:13.985Z,70.34
2019-05-05T23:41:43.499Z,70.35
2019-05-05T23:44:14.388Z,70.30
2019-05-05T23:46:44.254Z,70.31
2019-05-05T23:49:13.912Z,70.28
2019-05-05T23:51:44.106Z,70.25
2019-05-05T23:54:14.033Z,70.25
2019-05-05T23:56:44.102Z,70.23
2019-05-05T23:59:13.721Z,70.22
